M V Stampede — V70B4 — position and weather

sailwx.info

Track history (hours):
 
Tides and Currents Weather Stations Pressure Air Temp Water Temp Dewpoint Dewpoint Depression Visibility Wind Speed Wind Dir Waves Ship Positions

M V Stampede

Last reported at 2014-Dec-10 00:05 UTC. Time now 2014-Dec-20 06:35 UTC.
Position N 27°03' W 080°02'.
Warning: this ship's position is 10 days out of date.

Length 35 m; draft 3.2 m.

Type: Pleasure craft. MMSI: 538070463.

Date/timePositionNaut miles runAvg speedWind from/ knotsBaromVisibWave heightAir tempDewpointWater temp
2014-Dec-10 00:05N 27°03' W 080°02'5 8.9
2014-Dec-09 23:33N 26°59' W 080°01'19 9.4
2014-Dec-09 21:31N 26°40' W 079°55'1110.9
2014-Dec-09 20:33N 26°30' W 079°57'1110.8
2014-Dec-09 19:33N 26°19' W 079°59'1110.7
2014-Dec-09 18:33N 26°09' W 080°01'1111.1
2014-Dec-09 17:33N 25°58' W 080°03'10 9.6
2014-Dec-09 16:33N 25°48' W 080°05'  
2014-Dec-01 14:09N 25°46' W 080°09'3 4.4
2014-Dec-01 13:33N 25°46' W 080°06'8 7.8
2014-Dec-01 12:33N 25°53' W 080°04'1010.1
2014-Dec-01 11:33N 26°03' W 080°02'1010.0
2014-Dec-01 10:33N 26°13' W 080°01'9 8.8
2014-Dec-01 09:33N 26°22' W 080°00'8 8.2
2014-Dec-01 08:33N 26°30' W 079°58'7 7.4
2014-Dec-01 07:33N 26°37' W 079°54'14 6.7
2014-Dec-01 05:32N 26°50' W 079°55'6 6.4
2014-Dec-01 04:33N 26°56' W 079°58'  
Track history (hours):
 
Tides and Currents Weather Stations Pressure Air Temp Water Temp Dewpoint Dewpoint Depression Visibility Wind Speed Wind Dir Waves Ship Positions

M V Stampede

Last reported at 2014-Dec-10 00:05 UTC. Time now 2014-Dec-20 06:35 UTC.
Position N 27°03' W 080°02'.
Warning: this ship's position is 10 days out of date.

Length 35 m; draft 3.2 m.

Type: Pleasure craft. MMSI: 538070463.

Date/timePositionNaut miles runAvg speedWind from/ knotsBaromVisibWave heightAir tempDewpointWater temp
2014-Dec-10 00:05N 27°03' W 080°02'5 8.9
2014-Dec-09 23:33N 26°59' W 080°01'19 9.4
2014-Dec-09 21:31N 26°40' W 079°55'1110.9
2014-Dec-09 20:33N 26°30' W 079°57'1110.8
2014-Dec-09 19:33N 26°19' W 079°59'1110.7
2014-Dec-09 18:33N 26°09' W 080°01'1111.1
2014-Dec-09 17:33N 25°58' W 080°03'10 9.6
2014-Dec-09 16:33N 25°48' W 080°05'  
2014-Dec-01 14:09N 25°46' W 080°09'3 4.4
2014-Dec-01 13:33N 25°46' W 080°06'8 7.8
2014-Dec-01 12:33N 25°53' W 080°04'1010.1
2014-Dec-01 11:33N 26°03' W 080°02'1010.0
2014-Dec-01 10:33N 26°13' W 080°01'9 8.8
2014-Dec-01 09:33N 26°22' W 080°00'8 8.2
2014-Dec-01 08:33N 26°30' W 079°58'7 7.4
2014-Dec-01 07:33N 26°37' W 079°54'14 6.7
2014-Dec-01 05:32N 26°50' W 079°55'6 6.4
2014-Dec-01 04:33N 26°56' W 079°58'  

Dump ship's entire track history